sensor_id;sensor_type;location;lat;lon;timestamp;temperature;humidity
31837;DHT22;18401;49.344;6.240;2023-11-21T00:02:21;8.80;99.90
31837;DHT22;18401;49.344;6.240;2023-11-21T00:04:48;8.80;99.90
31837;DHT22;18401;49.344;6.240;2023-11-21T00:07:14;8.80;99.90
31837;DHT22;18401;49.344;6.240;2023-11-21T00:09:40;8.80;99.90
31837;DHT22;18401;49.344;6.240;2023-11-21T00:12:07;8.80;99.90
31837;DHT22;18401;49.344;6.240;2023-11-21T00:14:36;8.80;99.90
31837;DHT22;18401;49.344;6.240;2023-11-21T00:17:02;8.80;99.90
31837;DHT22;18401;49.344;6.240;2023-11-21T00:19:28;8.80;99.90
31837;DHT22;18401;49.344;6.240;2023-11-21T00:21:53;8.80;99.90
31837;DHT22;18401;49.344;6.240;2023-11-21T00:24:19;8.80;99.90
31837;DHT22;18401;49.344;6.240;2023-11-21T00:26:45;8.80;99.90
31837;DHT22;18401;49.344;6.240;2023-11-21T00:29:10;8.80;99.90
31837;DHT22;18401;49.344;6.240;2023-11-21T00:31:36;8.80;99.90
31837;DHT22;18401;49.344;6.240;2023-11-21T00:34:05;8.80;99.90
31837;DHT22;18401;49.344;6.240;2023-11-21T00:36:31;8.90;99.90
31837;DHT22;18401;49.344;6.240;2023-11-21T00:38:58;8.90;99.90
31837;DHT22;18401;49.344;6.240;2023-11-21T00:41:25;8.80;99.90
31837;DHT22;18401;49.344;6.240;2023-11-21T00:43:53;8.80;99.90
31837;DHT22;18401;49.344;6.240;2023-11-21T00:46:19;8.90;99.90
31837;DHT22;18401;49.344;6.240;2023-11-21T00:48:44;8.90;99.90
31837;DHT22;18401;49.344;6.240;2023-11-21T00:51:10;8.80;99.90
31837;DHT22;18401;49.344;6.240;2023-11-21T00:53:36;8.80;99.90
31837;DHT22;18401;49.344;6.240;2023-11-21T00:56:01;8.80;99.90
31837;DHT22;18401;49.344;6.240;2023-11-21T00:58:28;8.70;99.90
31837;DHT22;18401;49.344;6.240;2023-11-21T01:00:53;8.80;99.90
31837;DHT22;18401;49.344;6.240;2023-11-21T01:03:19;8.80;99.90
31837;DHT22;18401;49.344;6.240;2023-11-21T01:05:45;8.70;99.90
31837;DHT22;18401;49.344;6.240;2023-11-21T01:08:11;8.70;99.90
31837;DHT22;18401;49.344;6.240;2023-11-21T01:10:37;8.70;99.90
31837;DHT22;18401;49.344;6.240;2023-11-21T01:13:03;8.60;99.90
31837;DHT22;18401;49.344;6.240;2023-11-21T01:15:35;8.60;99.90
31837;DHT22;18401;49.344;6.240;2023-11-21T01:18:01;8.60;99.90
31837;DHT22;18401;49.344;6.240;2023-11-21T01:20:26;8.60;99.90
31837;DHT22;18401;49.344;6.240;2023-11-21T01:22:52;8.60;99.90
31837;DHT22;18401;49.344;6.240;2023-11-21T01:25:19;8.50;99.90
31837;DHT22;18401;49.344;6.240;2023-11-21T01:27:46;8.50;99.90
31837;DHT22;18401;49.344;6.240;2023-11-21T01:30:12;8.50;99.90
31837;DHT22;18401;49.344;6.240;2023-11-21T01:32:38;8.50;99.90
31837;DHT22;18401;49.344;6.240;2023-11-21T01:35:05;8.50;99.90
31837;DHT22;18401;49.344;6.240;2023-11-21T01:37:32;8.50;99.90
31837;DHT22;18401;49.344;6.240;2023-11-21T01:39:58;8.50;99.90
31837;DHT22;18401;49.344;6.240;2023-11-21T01:42:24;8.40;99.90
31837;DHT22;18401;49.344;6.240;2023-11-21T01:44:50;8.50;99.90
31837;DHT22;18401;49.344;6.240;2023-11-21T01:47:16;8.50;99.90
31837;DHT22;18401;49.344;6.240;2023-11-21T01:49:45;8.50;99.90
31837;DHT22;18401;49.344;6.240;2023-11-21T01:52:12;8.40;99.90
31837;DHT22;18401;49.344;6.240;2023-11-21T01:54:38;8.40;99.90
31837;DHT22;18401;49.344;6.240;2023-11-21T01:57:05;8.40;99.90
31837;DHT22;18401;49.344;6.240;2023-11-21T01:59:37;8.40;99.90
31837;DHT22;18401;49.344;6.240;2023-11-21T02:02:06;8.40;99.90
31837;DHT22;18401;49.344;6.240;2023-11-21T02:04:33;8.40;99.90
31837;DHT22;18401;49.344;6.240;2023-11-21T02:06:59;8.40;99.90
31837;DHT22;18401;49.344;6.240;2023-11-21T02:09:28;8.40;99.90
31837;DHT22;18401;49.344;6.240;2023-11-21T02:11:58;8.40;99.90
31837;DHT22;18401;49.344;6.240;2023-11-21T02:14:25;8.40;99.90
31837;DHT22;18401;49.344;6.240;2023-11-21T02:16:52;8.40;99.90
31837;DHT22;18401;49.344;6.240;2023-11-21T02:19:19;8.40;99.90
31837;DHT22;18401;49.344;6.240;2023-11-21T02:21:49;8.50;99.90
31837;DHT22;18401;49.344;6.240;2023-11-21T02:24:15;8.40;99.90
31837;DHT22;18401;49.344;6.240;2023-11-21T02:26:43;8.40;99.90
31837;DHT22;18401;49.344;6.240;2023-11-21T02:29:08;8.50;99.90
31837;DHT22;18401;49.344;6.240;2023-11-21T02:31:37;8.50;99.90
31837;DHT22;18401;49.344;6.240;2023-11-21T02:34:11;8.40;99.90
31837;DHT22;18401;49.344;6.240;2023-11-21T02:36:38;8.40;99.90
31837;DHT22;18401;49.344;6.240;2023-11-21T02:39:04;8.50;99.90
31837;DHT22;18401;49.344;6.240;2023-11-21T02:41:30;8.50;99.90
31837;DHT22;18401;49.344;6.240;2023-11-21T02:43:55;8.40;99.90
31837;DHT22;18401;49.344;6.240;2023-11-21T02:46:21;8.50;99.90
31837;DHT22;18401;49.344;6.240;2023-11-21T02:48:47;8.50;99.90
31837;DHT22;18401;49.344;6.240;2023-11-21T02:51:13;8.50;99.90
31837;DHT22;18401;49.344;6.240;2023-11-21T02:53:38;8.40;99.90
31837;DHT22;18401;49.344;6.240;2023-11-21T02:56:04;8.50;99.90
31837;DHT22;18401;49.344;6.240;2023-11-21T02:58:30;8.50;99.90
31837;DHT22;18401;49.344;6.240;2023-11-21T03:00:56;8.40;99.90
31837;DHT22;18401;49.344;6.240;2023-11-21T03:03:22;8.40;99.90
31837;DHT22;18401;49.344;6.240;2023-11-21T03:05:49;8.40;99.90
31837;DHT22;18401;49.344;6.240;2023-11-21T03:08:15;8.40;99.90
31837;DHT22;18401;49.344;6.240;2023-11-21T03:10:41;8.50;99.90
31837;DHT22;18401;49.344;6.240;2023-11-21T03:13:07;8.40;99.90
31837;DHT22;18401;49.344;6.240;2023-11-21T03:15:32;8.40;99.90
31837;DHT22;18401;49.344;6.240;2023-11-21T03:17:58;8.40;99.90
31837;DHT22;18401;49.344;6.240;2023-11-21T03:20:24;8.40;99.90
31837;DHT22;18401;49.344;6.240;2023-11-21T03:22:49;8.40;99.90
31837;DHT22;18401;49.344;6.240;2023-11-21T03:25:15;8.50;99.90
31837;DHT22;18401;49.344;6.240;2023-11-21T03:27:42;8.40;99.90
31837;DHT22;18401;49.344;6.240;2023-11-21T03:30:10;8.40;99.90
31837;DHT22;18401;49.344;6.240;2023-11-21T03:32:36;8.40;99.90
31837;DHT22;18401;49.344;6.240;2023-11-21T03:35:02;8.40;99.90
31837;DHT22;18401;49.344;6.240;2023-11-21T03:37:28;8.40;99.90
31837;DHT22;18401;49.344;6.240;2023-11-21T03:39:55;8.40;99.90
31837;DHT22;18401;49.344;6.240;2023-11-21T03:42:21;8.40;99.90
31837;DHT22;18401;49.344;6.240;2023-11-21T03:44:47;8.40;99.90
31837;DHT22;18401;49.344;6.240;2023-11-21T03:47:12;8.50;99.90
31837;DHT22;18401;49.344;6.240;2023-11-21T03:49:38;8.50;99.90
31837;DHT22;18401;49.344;6.240;2023-11-21T03:52:04;8.40;99.90
31837;DHT22;18401;49.344;6.240;2023-11-21T03:54:30;8.40;99.90
31837;DHT22;18401;49.344;6.240;2023-11-21T03:56:56;8.40;99.90
31837;DHT22;18401;49.344;6.240;2023-11-21T03:59:21;8.30;99.90
31837;DHT22;18401;49.344;6.240;2023-11-21T04:01:50;8.40;99.90
31837;DHT22;18401;49.344;6.240;2023-11-21T04:04:15;8.40;99.90
31837;DHT22;18401;49.344;6.240;2023-11-21T04:06:41;8.30;99.90
31837;DHT22;18401;49.344;6.240;2023-11-21T04:09:07;8.30;99.90
31837;DHT22;18401;49.344;6.240;2023-11-21T04:11:32;8.30;99.90
31837;DHT22;18401;49.344;6.240;2023-11-21T04:13:59;8.40;99.90
31837;DHT22;18401;49.344;6.240;2023-11-21T04:16:24;8.30;99.90
31837;DHT22;18401;49.344;6.240;2023-11-21T04:18:50;8.30;99.90
31837;DHT22;18401;49.344;6.240;2023-11-21T19:38:28;7.70;99.90
31837;DHT22;18401;49.344;6.240;2023-11-21T19:40:53;7.70;99.90
31837;DHT22;18401;49.344;6.240;2023-11-21T19:43:19;7.70;99.90
31837;DHT22;18401;49.344;6.240;2023-11-21T19:45:45;7.80;99.90
31837;DHT22;18401;49.344;6.240;2023-11-21T19:48:12;7.80;99.90
31837;DHT22;18401;49.344;6.240;2023-11-21T19:50:38;7.80;99.90
31837;DHT22;18401;49.344;6.240;2023-11-21T19:53:03;7.80;99.90
31837;DHT22;18401;49.344;6.240;2023-11-21T19:55:29;7.90;99.90
31837;DHT22;18401;49.344;6.240;2023-11-21T19:57:55;7.90;99.90
31837;DHT22;18401;49.344;6.240;2023-11-21T20:00:20;7.90;99.90
31837;DHT22;18401;49.344;6.240;2023-11-21T20:02:46;7.80;99.90
31837;DHT22;18401;49.344;6.240;2023-11-21T20:05:12;7.90;99.90
31837;DHT22;18401;49.344;6.240;2023-11-21T20:07:41;7.90;99.90
31837;DHT22;18401;49.344;6.240;2023-11-21T20:10:08;7.90;99.90
31837;DHT22;18401;49.344;6.240;2023-11-21T20:12:33;7.80;99.90
31837;DHT22;18401;49.344;6.240;2023-11-21T20:14:59;7.80;99.90
31837;DHT22;18401;49.344;6.240;2023-11-21T20:17:25;7.90;99.90
31837;DHT22;18401;49.344;6.240;2023-11-21T20:19:52;7.90;99.90
31837;DHT22;18401;49.344;6.240;2023-11-21T20:22:18;8.00;99.90
31837;DHT22;18401;49.344;6.240;2023-11-21T20:24:44;8.00;99.90
31837;DHT22;18401;49.344;6.240;2023-11-21T20:27:10;8.00;99.90
31837;DHT22;18401;49.344;6.240;2023-11-21T20:29:35;8.10;99.90
31837;DHT22;18401;49.344;6.240;2023-11-21T20:32:03;8.00;99.90
31837;DHT22;18401;49.344;6.240;2023-11-21T20:34:31;8.00;99.90
31837;DHT22;18401;49.344;6.240;2023-11-21T20:36:57;8.00;99.90
31837;DHT22;18401;49.344;6.240;2023-11-21T20:39:23;8.10;99.90
31837;DHT22;18401;49.344;6.240;2023-11-21T20:41:49;8.10;99.90
31837;DHT22;18401;49.344;6.240;2023-11-21T20:44:15;8.10;99.90
31837;DHT22;18401;49.344;6.240;2023-11-21T20:46:44;8.10;99.90
31837;DHT22;18401;49.344;6.240;2023-11-21T20:49:13;8.10;99.90
31837;DHT22;18401;49.344;6.240;2023-11-21T20:51:40;8.00;99.90
31837;DHT22;18401;49.344;6.240;2023-11-21T20:54:06;8.10;99.90
31837;DHT22;18401;49.344;6.240;2023-11-21T20:56:35;8.10;99.90
31837;DHT22;18401;49.344;6.240;2023-11-21T20:59:01;8.20;99.90
31837;DHT22;18401;49.344;6.240;2023-11-21T21:01:33;8.30;99.90
31837;DHT22;18401;49.344;6.240;2023-11-21T21:03:59;8.30;99.90
31837;DHT22;18401;49.344;6.240;2023-11-21T21:06:30;8.30;99.90
31837;DHT22;18401;49.344;6.240;2023-11-21T21:08:56;8.40;99.90
31837;DHT22;18401;49.344;6.240;2023-11-21T21:11:23;8.40;99.90
31837;DHT22;18401;49.344;6.240;2023-11-21T21:13:50;8.40;99.90
31837;DHT22;18401;49.344;6.240;2023-11-21T21:16:20;8.50;99.90
31837;DHT22;18401;49.344;6.240;2023-11-21T21:18:52;8.50;99.90
31837;DHT22;18401;49.344;6.240;2023-11-21T21:21:18;8.50;99.90
31837;DHT22;18401;49.344;6.240;2023-11-21T21:23:44;8.50;99.90
31837;DHT22;18401;49.344;6.240;2023-11-21T21:26:10;8.50;99.90
31837;DHT22;18401;49.344;6.240;2023-11-21T21:28:36;8.50;99.90
31837;DHT22;18401;49.344;6.240;2023-11-21T21:31:02;8.50;99.90
31837;DHT22;18401;49.344;6.240;2023-11-21T21:33:28;8.50;99.90
31837;DHT22;18401;49.344;6.240;2023-11-21T21:35:53;8.40;99.90
31837;DHT22;18401;49.344;6.240;2023-11-21T21:38:19;8.50;99.90
31837;DHT22;18401;49.344;6.240;2023-11-21T21:40:45;8.40;99.90
31837;DHT22;18401;49.344;6.240;2023-11-21T21:43:11;8.40;99.90
31837;DHT22;18401;49.344;6.240;2023-11-21T21:45:37;8.40;99.90
31837;DHT22;18401;49.344;6.240;2023-11-21T21:48:03;8.30;99.90
31837;DHT22;18401;49.344;6.240;2023-11-21T21:50:29;8.40;99.90
31837;DHT22;18401;49.344;6.240;2023-11-21T21:52:55;8.30;99.90
31837;DHT22;18401;49.344;6.240;2023-11-21T21:55:21;8.30;99.90
31837;DHT22;18401;49.344;6.240;2023-11-21T21:57:46;8.40;99.90
31837;DHT22;18401;49.344;6.240;2023-11-21T22:00:12;8.40;99.90
31837;DHT22;18401;49.344;6.240;2023-11-21T22:02:40;8.40;99.90
31837;DHT22;18401;49.344;6.240;2023-11-21T22:05:11;8.30;99.90
31837;DHT22;18401;49.344;6.240;2023-11-21T22:07:37;8.30;99.90
31837;DHT22;18401;49.344;6.240;2023-11-21T22:10:04;8.30;99.90
31837;DHT22;18401;49.344;6.240;2023-11-21T22:12:30;8.30;99.90
31837;DHT22;18401;49.344;6.240;2023-11-21T22:14:56;8.40;99.90
31837;DHT22;18401;49.344;6.240;2023-11-21T22:17:21;8.30;99.90
31837;DHT22;18401;49.344;6.240;2023-11-21T22:19:47;8.30;99.90
31837;DHT22;18401;49.344;6.240;2023-11-21T22:22:12;8.30;99.90
31837;DHT22;18401;49.344;6.240;2023-11-21T22:24:38;8.30;99.90
31837;DHT22;18401;49.344;6.240;2023-11-21T22:27:04;8.20;99.90
31837;DHT22;18401;49.344;6.240;2023-11-21T22:29:31;8.30;99.90
31837;DHT22;18401;49.344;6.240;2023-11-21T22:31:56;8.20;99.90
31837;DHT22;18401;49.344;6.240;2023-11-21T22:34:22;8.20;99.90
31837;DHT22;18401;49.344;6.240;2023-11-21T22:36:50;8.20;99.90
31837;DHT22;18401;49.344;6.240;2023-11-21T22:39:15;8.10;99.90
31837;DHT22;18401;49.344;6.240;2023-11-21T22:41:42;8.10;99.90
31837;DHT22;18401;49.344;6.240;2023-11-21T22:44:08;8.00;99.90
31837;DHT22;18401;49.344;6.240;2023-11-21T22:46:40;7.90;99.90
31837;DHT22;18401;49.344;6.240;2023-11-21T22:49:06;7.90;99.90
31837;DHT22;18401;49.344;6.240;2023-11-21T22:51:33;7.90;99.90
31837;DHT22;18401;49.344;6.240;2023-11-21T22:53:59;7.90;99.90
31837;DHT22;18401;49.344;6.240;2023-11-21T22:56:24;8.00;99.90
31837;DHT22;18401;49.344;6.240;2023-11-21T22:58:52;8.00;99.90
31837;DHT22;18401;49.344;6.240;2023-11-21T23:01:17;8.10;99.90
31837;DHT22;18401;49.344;6.240;2023-11-21T23:03:45;8.20;99.90
31837;DHT22;18401;49.344;6.240;2023-11-21T23:06:18;8.10;99.90
31837;DHT22;18401;49.344;6.240;2023-11-21T23:08:44;8.20;99.90
31837;DHT22;18401;49.344;6.240;2023-11-21T23:11:10;8.30;99.90
31837;DHT22;18401;49.344;6.240;2023-11-21T23:13:41;8.30;99.90
31837;DHT22;18401;49.344;6.240;2023-11-21T23:16:08;8.30;99.90
31837;DHT22;18401;49.344;6.240;2023-11-21T23:18:34;8.30;99.90
31837;DHT22;18401;49.344;6.240;2023-11-21T23:21:00;8.30;99.90
31837;DHT22;18401;49.344;6.240;2023-11-21T23:23:25;8.30;99.90
31837;DHT22;18401;49.344;6.240;2023-11-21T23:25:53;8.30;99.90
31837;DHT22;18401;49.344;6.240;2023-11-21T23:28:20;8.20;99.90
31837;DHT22;18401;49.344;6.240;2023-11-21T23:30:47;8.30;99.90
31837;DHT22;18401;49.344;6.240;2023-11-21T23:33:14;8.30;99.90
31837;DHT22;18401;49.344;6.240;2023-11-21T23:35:40;8.30;99.90
31837;DHT22;18401;49.344;6.240;2023-11-21T23:38:06;8.40;99.90
31837;DHT22;18401;49.344;6.240;2023-11-21T23:40:32;8.30;99.90
31837;DHT22;18401;49.344;6.240;2023-11-21T23:42:58;8.40;99.90
31837;DHT22;18401;49.344;6.240;2023-11-21T23:45:24;8.40;99.90
31837;DHT22;18401;49.344;6.240;2023-11-21T23:47:51;8.40;99.90
31837;DHT22;18401;49.344;6.240;2023-11-21T23:50:17;8.40;99.90
31837;DHT22;18401;49.344;6.240;2023-11-21T23:52:44;8.30;99.90
31837;DHT22;18401;49.344;6.240;2023-11-21T23:55:10;8.40;99.90
31837;DHT22;18401;49.344;6.240;2023-11-21T23:57:36;8.30;99.90
